createdAt,value
2018-01-30T00:00:59.730Z,0.80
2018-01-30T00:03:27.706Z,0.97
2018-01-30T00:05:56.522Z,0.77
2018-01-30T00:08:25.342Z,0.70
2018-01-30T00:10:53.413Z,0.80
2018-01-30T00:13:22.177Z,0.80
2018-01-30T00:15:50.331Z,0.90
2018-01-30T00:18:19.121Z,0.90
2018-01-30T00:20:47.105Z,1.00
2018-01-30T00:23:15.101Z,0.87
2018-01-30T00:25:43.010Z,1.07
2018-01-30T00:28:12.212Z,0.97
2018-01-30T00:30:41.247Z,1.10
2018-01-30T00:33:09.230Z,0.97
2018-01-30T00:35:37.271Z,0.90
2018-01-30T00:38:05.199Z,1.00
2018-01-30T00:40:33.433Z,0.80
2018-01-30T00:43:01.649Z,0.80
2018-01-30T00:45:30.614Z,1.00
2018-01-30T00:47:58.720Z,0.90
2018-01-30T00:50:27.566Z,0.93
2018-01-30T00:52:55.501Z,0.90
2018-01-30T00:55:23.515Z,0.90
2018-01-30T00:57:51.674Z,0.80
2018-01-30T01:00:19.717Z,1.03
2018-01-30T01:02:47.691Z,1.10
2018-01-30T01:05:16.403Z,0.80
2018-01-30T01:07:44.407Z,1.00
2018-01-30T01:10:12.420Z,0.90
2018-01-30T01:12:40.527Z,0.87
2018-01-30T01:15:09.513Z,0.90
2018-01-30T01:17:37.495Z,1.13
2018-01-30T01:20:05.607Z,0.90
2018-01-30T01:22:34.268Z,1.10
2018-01-30T01:25:02.336Z,0.97
2018-01-30T01:27:30.551Z,1.00
2018-01-30T01:29:58.448Z,0.90
2018-01-30T01:32:26.545Z,0.93
2018-01-30T01:34:54.581Z,0.93
2018-01-30T01:37:22.634Z,0.93
2018-01-30T01:39:50.602Z,0.90
2018-01-30T01:42:19.671Z,1.00
2018-01-30T01:44:47.685Z,0.97
2018-01-30T01:47:16.740Z,1.10
2018-01-30T01:49:44.958Z,1.00
2018-01-30T01:52:13.054Z,1.13
2018-01-30T01:54:41.386Z,1.07
2018-01-30T01:57:09.471Z,1.10
2018-01-30T01:59:37.444Z,0.93
2018-01-30T02:02:06.179Z,1.00
2018-01-30T02:04:34.200Z,1.00
2018-01-30T02:07:02.186Z,0.93
2018-01-30T02:09:30.148Z,1.10
2018-01-30T02:11:58.206Z,1.10
2018-01-30T02:14:26.148Z,1.20
2018-01-30T02:16:54.139Z,1.17
2018-01-30T02:19:22.412Z,1.20
2018-01-30T02:21:50.445Z,1.30
2018-01-30T02:24:18.354Z,1.10
2018-01-30T02:26:46.331Z,1.50
2018-01-30T02:29:14.416Z,1.33
2018-01-30T02:31:42.492Z,1.23
2018-01-30T02:34:12.463Z,1.37
2018-01-30T02:36:40.431Z,1.23
2018-01-30T02:39:08.430Z,1.73
2018-01-30T02:41:36.503Z,1.47
2018-01-30T02:44:04.666Z,1.40
2018-01-30T02:46:32.608Z,1.20
2018-01-30T02:49:00.832Z,1.27
2018-01-30T02:51:28.807Z,1.40
2018-01-30T02:53:56.779Z,1.60
2018-01-30T02:56:25.123Z,1.30
2018-01-30T02:58:53.059Z,1.40
2018-01-30T03:01:21.024Z,1.17
2018-01-30T03:03:49.099Z,1.53
2018-01-30T03:06:17.101Z,1.73
2018-01-30T03:08:45.322Z,1.73
2018-01-30T03:11:14.080Z,1.57
2018-01-30T03:13:42.074Z,1.50
2018-01-30T03:16:10.758Z,1.70
2018-01-30T03:18:39.532Z,1.50
2018-01-30T03:21:07.583Z,1.30
2018-01-30T03:23:35.632Z,1.27
2018-01-30T03:26:04.105Z,1.37
2018-01-30T03:28:32.110Z,1.30
2018-01-30T03:31:00.037Z,1.50
2018-01-30T03:33:28.131Z,1.60
2018-01-30T03:35:56.085Z,1.30
2018-01-30T03:38:24.343Z,1.40
2018-01-30T03:40:52.348Z,1.63
2018-01-30T03:43:20.415Z,1.60
2018-01-30T03:45:48.640Z,1.50
2018-01-30T03:48:16.679Z,2.30
2018-01-30T03:50:44.646Z,1.50
2018-01-30T03:53:12.768Z,1.70
2018-01-30T03:55:40.802Z,1.80
2018-01-30T03:58:08.848Z,1.60
2018-01-30T04:00:36.912Z,1.93
2018-01-30T04:03:05.480Z,1.57
2018-01-30T04:05:34.406Z,1.50
2018-01-30T04:08:02.358Z,1.77
2018-01-30T04:10:30.357Z,1.67
2018-01-30T04:12:59.105Z,2.20
2018-01-30T04:15:27.148Z,2.10
2018-01-30T04:17:55.352Z,2.03
2018-01-30T04:20:23.454Z,1.73
2018-01-30T04:22:52.335Z,1.90
2018-01-30T04:25:20.399Z,2.47
2018-01-30T04:27:48.564Z,2.30
2018-01-30T04:30:16.553Z,2.20
2018-01-30T04:32:44.491Z,2.80
2018-01-30T04:35:12.697Z,3.37
2018-01-30T04:37:40.694Z,2.50
2018-01-30T04:40:09.015Z,2.57
2018-01-30T04:42:37.170Z,3.63
2018-01-30T04:45:05.289Z,3.27
2018-01-30T04:47:33.438Z,3.00
2018-01-30T04:50:01.420Z,2.93
2018-01-30T04:52:29.374Z,3.10
2018-01-30T04:54:57.349Z,3.27
2018-01-30T04:57:25.335Z,3.10
2018-01-30T04:59:53.386Z,2.73
2018-01-30T05:02:21.454Z,2.90
2018-01-30T05:04:49.528Z,3.00
2018-01-30T05:07:17.538Z,2.57
2018-01-30T05:09:46.296Z,3.63
2018-01-30T05:12:14.482Z,3.50
2018-01-30T05:14:43.290Z,3.23
2018-01-30T05:17:11.563Z,3.07
2018-01-30T05:19:39.595Z,4.27
2018-01-30T05:22:08.422Z,2.90
2018-01-30T05:24:36.548Z,2.97
2018-01-30T05:27:04.639Z,2.50
2018-01-30T05:29:33.084Z,2.87
2018-01-30T05:32:01.079Z,2.80
2018-01-30T05:34:28.983Z,2.83
2018-01-30T05:36:56.985Z,2.77
2018-01-30T05:39:24.934Z,3.40
2018-01-30T05:41:53.045Z,3.10
2018-01-30T05:44:21.046Z,3.80
2018-01-30T05:46:49.063Z,3.30
2018-01-30T05:49:17.065Z,3.67
2018-01-30T05:51:45.171Z,3.40
2018-01-30T05:54:13.605Z,4.00
2018-01-30T05:56:41.490Z,4.00
2018-01-30T05:59:09.445Z,3.93
2018-01-30T06:01:37.650Z,4.10
2018-01-30T06:04:06.438Z,4.33
2018-01-30T06:06:35.194Z,3.83
2018-01-30T06:09:03.432Z,4.83
2018-01-30T06:11:31.464Z,4.43
2018-01-30T06:14:00.160Z,4.30
2018-01-30T06:16:29.007Z,4.63
2018-01-30T06:18:57.266Z,5.03
2018-01-30T06:21:25.331Z,5.00
2018-01-30T06:23:53.672Z,5.33
2018-01-30T06:26:22.518Z,4.90
2018-01-30T06:28:50.406Z,6.10
2018-01-30T06:31:18.926Z,6.20
2018-01-30T06:33:46.987Z,5.07
2018-01-30T06:36:15.128Z,4.90
2018-01-30T06:38:43.125Z,3.90
2018-01-30T06:41:12.174Z,4.70
2018-01-30T06:43:40.142Z,4.03
2018-01-30T06:46:08.226Z,5.03
2018-01-30T06:48:36.097Z,4.87
2018-01-30T06:51:04.035Z,4.60
2018-01-30T06:53:32.371Z,6.17
2018-01-30T06:56:00.463Z,7.73
2018-01-30T06:58:28.565Z,3.97
2018-01-30T07:00:56.613Z,3.97
2018-01-30T07:03:25.307Z,4.73
2018-01-30T07:05:53.515Z,5.73
2018-01-30T07:08:21.844Z,5.47
2018-01-30T07:10:49.812Z,4.60
2018-01-30T07:13:18.482Z,5.13
2018-01-30T07:15:46.462Z,4.43
2018-01-30T07:18:14.353Z,3.83
2018-01-30T07:20:42.314Z,7.40
2018-01-30T07:23:10.365Z,5.37
2018-01-30T07:25:38.402Z,4.33
2018-01-30T07:28:06.479Z,4.30
2018-01-30T07:30:34.489Z,4.80
2018-01-30T07:33:02.471Z,4.73
2018-01-30T07:35:30.440Z,4.00
2018-01-30T07:37:58.634Z,4.73
2018-01-30T07:40:27.477Z,4.23
2018-01-30T07:42:55.501Z,4.73
2018-01-30T07:45:23.575Z,5.83
2018-01-30T07:47:52.395Z,5.30
2018-01-30T07:50:20.632Z,5.00
2018-01-30T07:52:49.427Z,5.77
2018-01-30T07:55:18.048Z,6.40
2018-01-30T07:57:45.964Z,6.67
2018-01-30T08:00:14.078Z,5.73
2018-01-30T08:02:42.176Z,7.00
2018-01-30T08:05:10.067Z,8.17
2018-01-30T08:07:38.194Z,6.83
2018-01-30T08:10:06.195Z,5.80
2018-01-30T08:12:34.160Z,5.10
2018-01-30T08:15:02.747Z,5.93
2018-01-30T08:17:30.759Z,5.53
2018-01-30T08:19:59.465Z,5.70
2018-01-30T08:22:27.859Z,6.60
2018-01-30T08:24:55.841Z,6.70
2018-01-30T08:27:23.891Z,5.07
2018-01-30T08:29:51.872Z,5.10
2018-01-30T08:32:19.834Z,5.13
2018-01-30T08:34:48.052Z,5.40
2018-01-30T08:37:16.040Z,4.47
2018-01-30T08:39:44.753Z,5.07
2018-01-30T08:42:12.826Z,4.60
2018-01-30T08:44:40.826Z,3.83
2018-01-30T08:47:09.551Z,5.10
2018-01-30T08:49:37.549Z,3.43
2018-01-30T08:52:06.319Z,3.87
2018-01-30T08:54:35.159Z,4.07
2018-01-30T08:57:04.224Z,4.63
2018-01-30T08:59:32.354Z,4.40
2018-01-30T09:02:00.390Z,5.40
2018-01-30T09:04:29.452Z,4.53
2018-01-30T09:06:57.428Z,4.67
2018-01-30T09:09:25.340Z,4.10
2018-01-30T09:11:53.342Z,4.40
2018-01-30T09:14:22.083Z,3.80
2018-01-30T09:16:50.047Z,4.20
2018-01-30T09:19:18.055Z,4.13
2018-01-30T09:21:46.851Z,3.50
2018-01-30T09:24:15.591Z,4.90
2018-01-30T09:26:43.726Z,5.07
2018-01-30T09:29:12.463Z,4.80
2018-01-30T09:31:40.426Z,4.10
2018-01-30T09:34:08.379Z,4.37
2018-01-30T09:36:36.999Z,4.93
2018-01-30T09:39:05.804Z,5.37
2018-01-30T09:41:34.454Z,4.67
2018-01-30T09:44:02.623Z,4.47
2018-01-30T09:46:30.627Z,4.00
2018-01-30T09:48:59.281Z,4.60
2018-01-30T09:51:27.371Z,4.53
2018-01-30T09:53:55.378Z,3.83
2018-01-30T09:56:23.450Z,4.60
2018-01-30T09:58:51.439Z,5.50
2018-01-30T10:01:19.815Z,4.73
2018-01-30T10:03:48.177Z,5.13
2018-01-30T10:06:16.507Z,5.37
2018-01-30T10:08:44.684Z,5.67
2018-01-30T10:11:12.699Z,4.40
2018-01-30T10:13:40.836Z,4.73
2018-01-30T10:16:09.579Z,5.47
2018-01-30T10:18:38.037Z,5.67
2018-01-30T10:21:06.028Z,5.40
2018-01-30T10:23:33.941Z,4.77
2018-01-30T10:26:02.660Z,5.00
2018-01-30T10:28:30.890Z,4.27
2018-01-30T10:30:59.223Z,4.93
2018-01-30T10:33:27.183Z,3.50
2018-01-30T10:35:56.215Z,3.60
2018-01-30T10:38:24.212Z,3.60
2018-01-30T10:40:53.257Z,3.37
2018-01-30T10:43:21.673Z,3.60
2018-01-30T10:45:50.663Z,4.00
2018-01-30T10:48:19.364Z,4.37
2018-01-30T10:50:47.305Z,5.63
2018-01-30T10:53:15.236Z,5.07
2018-01-30T10:55:43.257Z,4.40
2018-01-30T10:58:12.218Z,3.23
2018-01-30T11:00:40.306Z,3.53
2018-01-30T11:03:08.254Z,3.53
2018-01-30T11:05:36.240Z,2.90
2018-01-30T11:08:04.662Z,2.53
2018-01-30T11:10:32.923Z,3.00
2018-01-30T11:13:01.651Z,2.80
2018-01-30T11:15:29.659Z,2.70
2018-01-30T11:17:57.780Z,3.00
2018-01-30T11:20:26.300Z,2.63
2018-01-30T11:22:55.302Z,3.07
2018-01-30T11:25:24.204Z,2.27
2018-01-30T11:27:52.938Z,2.90
2018-01-30T11:30:21.359Z,3.03
2018-01-30T11:32:49.390Z,3.03
2018-01-30T11:35:17.375Z,2.57
2018-01-30T11:37:45.525Z,3.03
2018-01-30T11:40:13.510Z,2.40
2018-01-30T11:42:42.809Z,2.40
2018-01-30T11:45:10.793Z,2.00
2018-01-30T11:47:38.826Z,2.50
2018-01-30T11:50:06.894Z,4.03
2018-01-30T11:52:35.231Z,2.87
2018-01-30T11:55:03.140Z,2.17
2018-01-30T11:57:31.763Z,2.47
2018-01-30T11:59:59.834Z,2.80
2018-01-30T12:02:27.918Z,2.27
2018-01-30T12:04:55.962Z,1.90
2018-01-30T12:07:24.073Z,2.77
2018-01-30T12:09:52.432Z,3.10
2018-01-30T12:12:20.630Z,2.60
2018-01-30T12:14:49.368Z,2.77
2018-01-30T12:17:17.370Z,2.20
2018-01-30T12:19:45.627Z,3.30
2018-01-30T12:22:13.557Z,2.50
2018-01-30T12:24:41.595Z,2.40
2018-01-30T12:27:10.650Z,2.67
2018-01-30T12:29:38.581Z,2.47
2018-01-30T12:32:06.686Z,2.13
2018-01-30T12:34:34.980Z,3.30
2018-01-30T12:37:03.277Z,2.50
2018-01-30T12:39:31.528Z,1.90
2018-01-30T12:41:59.615Z,2.03
2018-01-30T12:44:28.368Z,2.00
2018-01-30T12:46:56.286Z,1.60
2018-01-30T12:49:24.394Z,1.90
2018-01-30T12:51:52.497Z,2.13
2018-01-30T12:54:20.490Z,2.00
2018-01-30T12:56:48.517Z,2.00
2018-01-30T12:59:16.531Z,2.00
2018-01-30T13:01:45.213Z,1.90
2018-01-30T13:04:13.926Z,2.43
2018-01-30T13:06:42.021Z,1.70
2018-01-30T13:09:10.120Z,2.13
2018-01-30T13:11:38.386Z,1.80
2018-01-30T13:14:06.830Z,1.80
2018-01-30T13:16:34.758Z,2.23
2018-01-30T13:19:02.848Z,2.13
2018-01-30T13:21:30.854Z,1.93
2018-01-30T13:23:59.582Z,2.50
2018-01-30T13:26:27.941Z,2.10
2018-01-30T13:28:55.908Z,2.07
2018-01-30T13:31:23.967Z,2.00
2018-01-30T13:33:51.882Z,2.10
2018-01-30T13:36:20.874Z,1.93
2018-01-30T13:38:49.610Z,1.70
2018-01-30T13:41:17.787Z,1.77
2018-01-30T13:43:45.934Z,1.67
2018-01-30T13:46:14.045Z,1.87
2018-01-30T13:48:43.182Z,1.70
2018-01-30T13:51:11.979Z,1.60
2018-01-30T13:53:40.088Z,1.80
2018-01-30T13:56:08.076Z,1.60
2018-01-30T13:58:36.091Z,1.70
2018-01-30T14:01:04.107Z,2.13
2018-01-30T14:03:32.197Z,2.17
2018-01-30T14:06:01.345Z,1.80
2018-01-30T14:08:30.247Z,1.83
2018-01-30T14:10:58.390Z,1.90
2018-01-30T14:13:27.033Z,1.70
2018-01-30T14:15:55.279Z,2.17
2018-01-30T14:18:24.204Z,1.90
2018-01-30T14:20:52.248Z,2.10
2018-01-30T14:23:20.393Z,3.07
2018-01-30T14:25:48.801Z,3.10
2018-01-30T14:28:16.794Z,2.13
2018-01-30T14:30:44.809Z,1.80
2018-01-30T14:33:12.800Z,2.10
2018-01-30T14:35:41.495Z,2.43
2018-01-30T14:38:09.484Z,2.00
2018-01-30T14:40:38.478Z,2.90
2018-01-30T14:43:06.628Z,25.57
2018-01-30T14:45:34.863Z,3.40
2018-01-30T14:48:03.055Z,5.63
2018-01-30T14:50:31.311Z,4.37
2018-01-30T14:52:59.692Z,2.13
2018-01-30T14:55:27.982Z,4.03
2018-01-30T14:57:56.745Z,3.20
2018-01-30T15:00:24.917Z,2.63
2018-01-30T15:02:52.966Z,3.80
2018-01-30T15:05:21.164Z,2.70
2018-01-30T15:07:49.311Z,2.67
2018-01-30T15:10:17.826Z,2.57
2018-01-30T15:12:46.731Z,2.57
2018-01-30T15:15:14.778Z,2.50
2018-01-30T15:17:42.928Z,2.33
2018-01-30T15:20:11.838Z,2.50
2018-01-30T15:22:39.891Z,4.37
2018-01-30T15:25:08.207Z,2.93
2018-01-30T15:27:36.430Z,2.83
2018-01-30T15:30:05.145Z,2.70
2018-01-30T15:32:33.148Z,3.67
2018-01-30T15:35:01.110Z,9.17
2018-01-30T15:37:29.046Z,2.97
2018-01-30T15:39:57.172Z,2.47
2018-01-30T15:42:25.209Z,3.00
2018-01-30T15:44:53.245Z,2.30
2018-01-30T15:47:21.932Z,2.87
2018-01-30T15:49:50.005Z,3.07
2018-01-30T15:52:19.270Z,4.93
2018-01-30T15:54:48.066Z,3.33
2018-01-30T15:57:16.111Z,3.37
2018-01-30T15:59:44.269Z,4.00
2018-01-30T16:02:12.314Z,4.20
2018-01-30T16:04:40.262Z,3.87
2018-01-30T16:07:08.341Z,4.10
2018-01-30T16:09:36.624Z,4.33
2018-01-30T16:12:05.449Z,3.50
2018-01-30T16:14:33.548Z,3.60
2018-01-30T16:17:01.937Z,5.13
2018-01-30T16:19:29.951Z,3.20
2018-01-30T16:21:58.136Z,4.20
2018-01-30T16:24:26.374Z,3.07
2018-01-30T16:26:54.596Z,3.10
2018-01-30T16:29:23.564Z,3.10
2018-01-30T16:31:52.609Z,3.40
2018-01-30T16:34:20.566Z,2.93
2018-01-30T16:36:49.319Z,3.53
2018-01-30T16:39:17.243Z,3.97
2018-01-30T16:41:45.260Z,4.10
2018-01-30T16:44:13.200Z,3.80
2018-01-30T16:46:42.156Z,4.00
2018-01-30T16:49:10.191Z,3.93
2018-01-30T16:51:38.310Z,4.10
2018-01-30T16:54:06.387Z,3.43
2018-01-30T16:56:35.290Z,4.73
2018-01-30T16:59:04.168Z,6.70
2018-01-30T17:01:32.102Z,4.83
2018-01-30T17:04:00.150Z,4.70
2018-01-30T17:06:28.263Z,4.63
2018-01-30T17:08:56.331Z,6.30
2018-01-30T17:11:24.597Z,5.47
2018-01-30T17:13:52.573Z,5.00
2018-01-30T17:16:20.630Z,5.17
2018-01-30T17:18:48.722Z,4.70
2018-01-30T17:21:16.767Z,4.93
2018-01-30T17:23:44.892Z,6.53
2018-01-30T17:26:14.330Z,5.97
2018-01-30T17:28:42.510Z,5.73
2018-01-30T17:31:11.301Z,6.10
2018-01-30T17:33:39.463Z,5.93
2018-01-30T17:36:07.784Z,6.03
2018-01-30T17:38:35.846Z,6.33
2018-01-30T17:41:03.929Z,5.93
2018-01-30T17:43:31.974Z,6.13
2018-01-30T17:46:01.038Z,7.03
2018-01-30T17:48:29.740Z,5.70
2018-01-30T17:50:59.706Z,6.83
2018-01-30T17:53:28.782Z,6.60
2018-01-30T17:55:56.781Z,6.20
2018-01-30T17:58:25.551Z,5.80
2018-01-30T18:00:54.760Z,5.63
2018-01-30T18:03:23.473Z,5.90
2018-01-30T18:05:51.494Z,6.10
2018-01-30T18:08:19.990Z,6.87
2018-01-30T18:10:48.764Z,7.97
2018-01-30T18:13:16.765Z,8.23
2018-01-30T18:15:45.474Z,8.63
2018-01-30T18:18:13.543Z,7.40
2018-01-30T18:21:44.399Z,8.00
2018-01-30T18:24:13.394Z,5.77
2018-01-30T18:26:41.366Z,7.90
2018-01-30T18:29:09.844Z,7.43
2018-01-30T18:31:38.745Z,6.60
2018-01-30T18:34:06.927Z,7.13
2018-01-30T18:36:34.956Z,6.67
2018-01-30T18:39:03.354Z,6.73
2018-01-30T18:41:32.546Z,6.60
2018-01-30T18:44:01.438Z,7.20
2018-01-30T18:46:29.428Z,6.40
2018-01-30T18:48:57.437Z,6.77
2018-01-30T18:51:26.143Z,7.50
2018-01-30T18:53:54.451Z,7.03
2018-01-30T18:56:23.262Z,6.90
2018-01-30T18:58:51.218Z,7.37
2018-01-30T19:01:19.252Z,7.40
2018-01-30T19:03:47.333Z,7.33
2018-01-30T19:06:15.416Z,7.00
2018-01-30T19:08:43.545Z,6.80
2018-01-30T19:11:12.740Z,7.00
2018-01-30T19:13:40.762Z,7.17
2018-01-30T19:16:08.851Z,7.33
2018-01-30T19:18:37.027Z,8.80
2018-01-30T19:21:05.344Z,7.87
2018-01-30T19:23:33.651Z,8.13
2018-01-30T19:26:01.783Z,8.83
2018-01-30T19:28:29.708Z,9.07
2018-01-30T19:30:58.461Z,8.30
2018-01-30T19:33:26.530Z,9.80
2018-01-30T19:35:54.659Z,13.53
2018-01-30T19:38:23.722Z,9.98
2018-01-30T19:40:52.147Z,8.87
2018-01-30T19:43:20.793Z,10.80
2018-01-30T19:45:49.598Z,9.87
2018-01-30T19:48:18.132Z,9.37
2018-01-30T19:50:46.194Z,10.43
2018-01-30T19:53:14.303Z,10.68
2018-01-30T19:55:42.474Z,10.60
2018-01-30T19:58:10.765Z,11.27
2018-01-30T20:00:39.628Z,9.80
2018-01-30T20:03:07.679Z,9.77
2018-01-30T20:05:35.955Z,12.15
2018-01-30T20:08:04.077Z,9.10
2018-01-30T20:10:33.087Z,9.90
2018-01-30T20:13:02.075Z,10.03
2018-01-30T20:15:30.122Z,10.75
2018-01-30T20:17:58.270Z,11.65
2018-01-30T20:20:26.350Z,11.23
2018-01-30T20:22:54.409Z,12.33
2018-01-30T20:25:22.504Z,13.83
2018-01-30T20:27:50.868Z,12.13
2018-01-30T20:30:19.162Z,8.98
2018-01-30T20:32:48.347Z,10.20
2018-01-30T20:35:16.683Z,9.02
2018-01-30T20:37:46.628Z,8.13
2018-01-30T20:40:14.805Z,8.43
2018-01-30T20:42:42.848Z,8.65
2018-01-30T20:45:11.013Z,8.68
2018-01-30T20:47:39.034Z,16.08
2018-01-30T20:50:07.611Z,9.23
2018-01-30T20:52:36.605Z,8.30
2018-01-30T20:55:09.287Z,8.27
2018-01-30T20:57:38.203Z,9.35
2018-01-30T21:00:06.266Z,8.70
2018-01-30T21:02:35.341Z,7.95
2018-01-30T21:05:03.501Z,8.45
2018-01-30T21:07:32.081Z,8.15
2018-01-30T21:10:00.443Z,8.93
2018-01-30T21:12:29.244Z,9.20
2018-01-30T21:14:57.357Z,8.38
2018-01-30T21:17:25.421Z,7.78
2018-01-30T21:19:56.548Z,8.38
2018-01-30T21:22:24.626Z,8.52
2018-01-30T21:24:52.768Z,7.75
2018-01-30T21:27:20.922Z,7.85
2018-01-30T21:29:48.946Z,7.90
2018-01-30T21:32:16.980Z,8.48
2018-01-30T21:34:45.048Z,7.85
2018-01-30T21:37:13.198Z,7.85
2018-01-30T21:39:41.199Z,8.20
2018-01-30T21:42:09.381Z,7.62
2018-01-30T21:44:37.549Z,8.05
2018-01-30T21:47:05.847Z,7.82
2018-01-30T21:49:33.980Z,7.60
2018-01-30T21:52:02.457Z,7.70
2018-01-30T21:54:30.507Z,8.00
2018-01-30T21:56:58.594Z,7.87
2018-01-30T21:59:27.402Z,8.70
2018-01-30T22:01:55.402Z,7.77
2018-01-30T22:04:23.423Z,8.73
2018-01-30T22:06:51.532Z,7.68
2018-01-30T22:09:19.756Z,7.97
2018-01-30T22:11:47.794Z,8.93
2018-01-30T22:14:16.752Z,7.85
2018-01-30T22:16:44.822Z,9.03
2018-01-30T22:19:12.873Z,7.67
2018-01-30T22:21:41.193Z,7.32
2018-01-30T22:24:09.700Z,7.30
2018-01-30T22:26:38.442Z,7.23
2018-01-30T22:29:07.359Z,7.53
2018-01-30T22:31:36.349Z,7.30
2018-01-30T22:34:04.301Z,8.97
2018-01-30T22:36:32.465Z,8.90
2018-01-30T22:39:00.657Z,9.47
2018-01-30T22:41:28.636Z,7.43
2018-01-30T22:43:56.819Z,8.47
2018-01-30T22:46:25.764Z,7.80
